createdAt,value
2023-04-12T00:00:20.893Z,59.86
2023-04-12T00:02:49.834Z,63.34
2023-04-12T00:05:16.531Z,65.45
2023-04-12T00:07:46.759Z,64.51
2023-04-12T00:10:13.353Z,63.39
2023-04-12T00:12:40.973Z,62.45
2023-04-12T00:15:08.697Z,61.82
2023-04-12T00:17:35.346Z,61.18
2023-04-12T00:20:05.565Z,60.45
2023-04-12T00:22:32.086Z,58.67
2023-04-12T00:24:58.623Z,58.30
2023-04-12T00:27:25.842Z,59.74
2023-04-12T00:29:52.374Z,63.08
2023-04-12T00:32:18.998Z,65.01
2023-04-12T00:34:46.239Z,64.59
2023-04-12T00:37:12.775Z,63.33
2023-04-12T00:39:39.413Z,62.46
2023-04-12T00:42:06.495Z,62.10
2023-04-12T00:44:35.310Z,61.87
2023-04-12T00:47:04.899Z,61.40
2023-04-12T00:49:32.966Z,60.29
2023-04-12T00:52:04.513Z,59.88
2023-04-12T00:54:32.408Z,58.57
2023-04-12T00:57:00.574Z,58.94
2023-04-12T00:59:27.291Z,60.46
2023-04-12T01:01:57.811Z,64.14
2023-04-12T01:04:26.352Z,65.82
2023-04-12T01:07:10.107Z,64.70
2023-04-12T01:10:08.378Z,63.55
2023-04-12T01:12:37.965Z,62.80
2023-04-12T01:15:13.089Z,62.60
2023-04-12T01:17:49.059Z,62.51
2023-04-12T01:20:21.709Z,62.46
2023-04-12T01:23:14.726Z,62.04
2023-04-12T01:26:00.278Z,62.15
2023-04-12T01:28:38.229Z,62.13
2023-04-12T01:31:07.288Z,62.08
2023-04-12T01:33:36.999Z,61.78
2023-04-12T01:36:12.174Z,62.47
2023-04-12T01:38:41.737Z,62.82
2023-04-12T01:41:08.562Z,62.92
2023-04-12T01:43:41.353Z,63.46
2023-04-12T01:46:07.988Z,63.88
2023-04-12T01:48:35.033Z,64.03
2023-04-12T01:51:09.317Z,64.14
2023-04-12T01:53:35.898Z,63.77
2023-04-12T01:56:08.166Z,63.67
2023-04-12T01:58:36.179Z,63.37
2023-04-12T02:01:04.100Z,63.62
2023-04-12T02:03:31.676Z,64.04
2023-04-12T02:05:59.684Z,64.06
2023-04-12T02:08:27.010Z,64.16
2023-04-12T02:10:54.872Z,64.08
2023-04-12T02:13:21.582Z,64.41
2023-04-12T02:19:03.988Z,64.92
2023-04-12T02:21:42.938Z,64.79
2023-04-12T02:24:11.319Z,64.87
2023-04-12T02:26:38.903Z,64.83
2023-04-12T02:29:09.098Z,64.90
2023-04-12T02:31:38.892Z,65.13
2023-04-12T02:34:07.377Z,65.19
2023-04-12T02:36:37.785Z,65.02
2023-04-12T02:39:05.200Z,65.08
2023-04-12T02:41:33.897Z,65.22
2023-04-12T02:44:00.518Z,65.03
2023-04-12T02:46:27.510Z,65.22
2023-04-12T02:48:58.326Z,65.08
2023-04-12T02:51:32.232Z,65.09
2023-04-12T02:53:59.286Z,65.15
2023-04-12T02:56:29.975Z,65.34
2023-04-12T02:59:01.747Z,65.47
2023-04-12T03:01:46.517Z,65.76
2023-04-12T03:04:22.769Z,65.95
2023-04-12T03:06:53.881Z,65.41
2023-04-12T03:09:27.120Z,65.24
2023-04-12T03:11:54.777Z,65.12
2023-04-12T03:14:21.726Z,64.94
2023-04-12T03:16:49.227Z,64.83
2023-04-12T03:19:17.474Z,64.69
2023-04-12T03:21:49.341Z,64.64
2023-04-12T03:24:16.131Z,64.36
2023-04-12T03:26:43.924Z,64.29
2023-04-12T03:29:16.275Z,64.31
2023-04-12T03:31:43.377Z,64.36
2023-04-12T03:34:10.477Z,64.55
2023-04-12T03:36:39.854Z,64.82
2023-04-12T03:39:17.139Z,65.01
2023-04-12T03:41:44.697Z,64.92
2023-04-12T03:44:11.445Z,64.84
2023-04-12T03:46:38.562Z,64.57
2023-04-12T03:49:07.742Z,64.64
2023-04-12T03:51:35.099Z,64.72
2023-04-12T03:54:04.437Z,64.54
2023-04-12T03:56:39.618Z,64.35
2023-04-12T03:59:10.302Z,63.98
2023-04-12T04:01:37.439Z,63.72
2023-04-12T04:04:05.333Z,63.37
2023-04-12T04:06:32.096Z,63.09
2023-04-12T04:08:59.821Z,63.06
2023-04-12T04:11:27.777Z,63.03
2023-04-12T04:14:04.023Z,63.07
2023-04-12T04:16:31.253Z,62.63
2023-04-12T04:18:58.295Z,62.44
2023-04-12T04:21:24.998Z,62.27
2023-04-12T04:23:55.570Z,62.19
2023-04-12T04:26:33.578Z,62.35
2023-04-12T04:29:11.903Z,62.30
2023-04-12T04:31:39.394Z,62.14
2023-04-12T04:34:07.195Z,62.00
2023-04-12T04:36:37.857Z,61.88
2023-04-12T04:39:05.549Z,62.13
2023-04-12T04:41:39.795Z,61.67
2023-04-12T04:44:13.391Z,61.54
2023-04-12T04:46:48.761Z,60.47
2023-04-12T04:49:15.463Z,58.54
2023-04-12T04:51:42.208Z,58.68
2023-04-12T04:54:09.457Z,60.39
2023-04-12T04:56:38.625Z,64.19
2023-04-12T04:59:05.608Z,65.15
2023-04-12T05:01:36.529Z,63.77
2023-04-12T05:04:04.193Z,61.77
2023-04-12T05:06:31.794Z,61.18
2023-04-12T05:09:00.577Z,61.06
2023-04-12T05:11:27.599Z,60.76
2023-04-12T05:13:54.275Z,60.76
2023-04-12T05:16:21.016Z,60.66
2023-04-12T05:26:12.213Z,58.51
2023-04-12T05:28:39.857Z,58.81
2023-04-12T05:31:08.574Z,60.53
2023-04-12T05:33:37.496Z,63.97
2023-04-12T05:36:04.867Z,64.26
2023-04-12T05:38:31.801Z,61.51
2023-04-12T05:41:04.714Z,59.79
2023-04-12T05:43:33.037Z,57.16
2023-04-12T05:45:59.758Z,57.59
2023-04-12T05:48:26.526Z,59.28
2023-04-12T05:50:55.270Z,61.48
2023-04-12T05:53:22.548Z,64.59
2023-04-12T05:55:49.877Z,64.54
2023-04-12T05:58:17.134Z,62.56
2023-04-12T06:00:44.055Z,61.42
2023-04-12T06:03:11.814Z,59.84
2023-04-12T06:05:39.500Z,57.05
2023-04-12T06:08:06.491Z,57.01
2023-04-12T06:10:33.514Z,58.28
2023-04-12T06:13:00.503Z,59.85
2023-04-12T06:15:27.418Z,60.68
2023-04-12T06:17:54.846Z,63.66
2023-04-12T06:20:21.615Z,63.00
2023-04-12T06:22:48.412Z,60.78
2023-04-12T06:25:17.360Z,57.77
2023-04-12T06:27:46.070Z,56.80
2023-04-12T06:30:14.973Z,57.70
2023-04-12T06:32:42.370Z,60.05
2023-04-12T06:35:09.124Z,61.14
2023-04-12T06:37:36.104Z,62.91
2023-04-12T06:40:03.240Z,62.68
2023-04-12T06:42:29.849Z,60.26
2023-04-12T06:44:56.364Z,57.69
2023-04-12T06:47:25.310Z,57.74
2023-04-12T06:49:54.870Z,58.73
2023-04-12T06:52:25.520Z,59.18
2023-04-12T06:54:52.680Z,59.72
2023-04-12T06:57:19.256Z,61.10
2023-04-12T06:59:45.857Z,61.50
2023-04-12T07:02:12.424Z,62.05
2023-04-12T07:04:39.025Z,58.15
2023-04-12T07:07:06.465Z,55.61
2023-04-12T07:09:33.513Z,56.13
2023-04-12T07:12:01.024Z,56.69
2023-04-12T07:14:27.774Z,57.18
2023-04-12T07:16:54.697Z,58.25
2023-04-12T07:19:21.408Z,58.76
2023-04-12T07:21:48.022Z,58.10
2023-04-12T07:24:14.619Z,59.00
2023-04-12T07:26:41.242Z,58.85
2023-04-12T07:29:07.806Z,58.46
2023-04-12T07:31:34.757Z,57.81
2023-04-12T07:34:01.448Z,56.98
2023-04-12T07:36:28.212Z,54.50
2023-04-12T07:38:57.920Z,53.48
2023-04-12T07:41:24.837Z,53.40
2023-04-12T07:43:51.610Z,53.40
2023-04-12T07:46:18.406Z,53.45
2023-04-12T07:48:45.333Z,53.41
2023-04-12T07:51:12.658Z,52.22
2023-04-12T07:53:41.987Z,50.91
2023-04-12T07:56:08.911Z,51.02
2023-04-12T07:58:35.544Z,49.00
2023-04-12T08:01:02.206Z,49.62
2023-04-12T08:03:29.336Z,50.49
2023-04-12T08:05:56.058Z,50.51
2023-04-12T08:08:23.127Z,51.23
2023-04-12T08:10:51.582Z,51.76
2023-04-12T08:13:18.979Z,52.84
2023-04-12T08:15:47.768Z,53.98
2023-04-12T08:18:15.256Z,54.48
2023-04-12T08:20:44.140Z,54.91
2023-04-12T08:23:12.167Z,55.78
2023-04-12T08:25:39.672Z,57.85
2023-04-12T08:28:09.538Z,58.38
2023-04-12T08:30:36.847Z,58.62
2023-04-12T08:33:03.689Z,58.53
2023-04-12T08:35:30.538Z,59.45
2023-04-12T08:37:57.227Z,60.58
2023-04-12T08:40:24.579Z,57.44
2023-04-12T08:42:52.911Z,56.91
2023-04-12T08:45:23.752Z,57.49
2023-04-12T08:47:50.624Z,57.31
2023-04-12T08:50:18.592Z,57.25
2023-04-12T08:52:47.896Z,56.55
2023-04-12T08:55:14.734Z,54.71
2023-04-12T08:57:42.435Z,54.45
2023-04-12T09:00:10.350Z,53.51
2023-04-12T09:02:38.663Z,53.06
2023-04-12T09:05:07.112Z,52.18
2023-04-12T09:07:34.275Z,51.65
2023-04-12T09:10:01.453Z,47.39
2023-04-12T09:12:28.485Z,45.27
2023-04-12T09:15:13.679Z,40.92
2023-04-12T09:17:42.110Z,37.04
2023-04-12T09:20:29.408Z,33.99
2023-04-12T09:22:56.283Z,31.67
2023-04-12T09:25:38.596Z,31.89
2023-04-12T09:28:21.754Z,31.16
2023-04-12T09:30:51.701Z,29.72
2023-04-12T09:33:23.542Z,29.58
2023-04-12T09:35:50.340Z,29.99
2023-04-12T09:38:17.282Z,29.93
2023-04-12T09:40:45.558Z,30.08
2023-04-12T09:43:12.529Z,30.64
2023-04-12T09:45:39.419Z,32.13
2023-04-12T09:48:07.210Z,32.49
2023-04-12T09:50:34.539Z,32.22
2023-04-12T09:53:03.685Z,31.77
2023-04-12T09:55:32.513Z,31.84
2023-04-12T09:58:03.164Z,30.43
2023-04-12T10:00:34.333Z,30.62
2023-04-12T10:03:02.121Z,31.49
2023-04-12T10:05:29.553Z,30.66
2023-04-12T10:07:58.179Z,32.18
2023-04-12T10:10:28.834Z,32.43
2023-04-12T10:12:56.553Z,33.10
2023-04-12T10:15:25.720Z,33.14
2023-04-12T10:17:58.118Z,33.85
2023-04-12T10:20:28.964Z,35.40
2023-04-12T10:22:59.756Z,37.03
2023-04-12T10:25:31.118Z,38.32
2023-04-12T10:28:13.101Z,39.35
2023-04-12T10:30:40.007Z,41.09
2023-04-12T10:33:08.414Z,41.89
2023-04-12T10:35:57.782Z,38.38
2023-04-12T10:38:27.068Z,35.48
2023-04-12T10:41:24.357Z,33.14
2023-04-12T10:43:52.067Z,32.40
2023-04-12T10:46:39.559Z,30.62
2023-04-12T10:49:17.335Z,28.98
2023-04-12T10:52:01.197Z,28.46
2023-04-12T10:54:36.806Z,29.76
2023-04-12T10:57:05.446Z,30.04
2023-04-12T10:59:56.902Z,29.73
2023-04-12T11:02:24.259Z,31.18
2023-04-12T11:05:11.337Z,33.01
2023-04-12T11:08:00.959Z,35.66
2023-04-12T11:10:41.825Z,36.46
2023-04-12T11:13:18.168Z,37.76
2023-04-12T11:15:45.696Z,39.72
2023-04-12T11:18:12.712Z,38.73
2023-04-12T11:20:40.942Z,36.52
2023-04-12T11:23:10.595Z,35.11
2023-04-12T11:25:38.755Z,34.49
2023-04-12T11:28:14.091Z,32.68
2023-04-12T11:30:56.213Z,34.68
2023-04-12T11:33:37.032Z,36.07
2023-04-12T11:36:09.613Z,37.72
2023-04-12T11:38:38.152Z,39.14
2023-04-12T11:41:07.098Z,39.83
2023-04-12T11:43:35.776Z,40.89
2023-04-12T11:46:03.492Z,39.84
2023-04-12T11:48:30.861Z,38.87
2023-04-12T11:51:10.282Z,36.81
2023-04-12T11:53:39.068Z,35.50
2023-04-12T11:56:06.416Z,33.92
2023-04-12T11:58:33.685Z,32.64
2023-04-12T12:01:00.871Z,31.73
2023-04-12T12:03:28.943Z,30.30
2023-04-12T12:05:56.680Z,29.42
2023-04-12T12:08:24.519Z,27.51
2023-04-12T12:11:04.001Z,27.70
2023-04-12T12:13:53.201Z,28.99
2023-04-12T12:16:29.475Z,29.82
2023-04-12T12:18:57.890Z,29.16
2023-04-12T12:21:27.399Z,28.20
2023-04-12T12:23:57.103Z,27.93
2023-04-12T12:26:26.252Z,27.92
2023-04-12T12:28:55.687Z,28.57
2023-04-12T12:31:24.788Z,28.36
2023-04-12T12:33:57.233Z,28.97
2023-04-12T12:36:34.598Z,30.05
2023-04-12T12:39:07.502Z,31.24
2023-04-12T12:41:34.705Z,31.26
2023-04-12T12:44:01.611Z,30.24
2023-04-12T12:46:40.703Z,29.29
2023-04-12T12:49:15.681Z,28.24
2023-04-12T12:51:43.015Z,28.72
2023-04-12T12:54:10.089Z,28.32
2023-04-12T12:56:37.131Z,28.99
2023-04-12T12:59:03.987Z,28.98
2023-04-12T13:01:31.152Z,28.96
2023-04-12T13:03:59.340Z,27.25
2023-04-12T13:06:27.288Z,27.45
2023-04-12T13:08:55.394Z,27.15
2023-04-12T13:11:22.384Z,27.53
2023-04-12T13:13:49.293Z,28.75
2023-04-12T13:16:16.322Z,29.98
2023-04-12T13:18:43.894Z,30.64
2023-04-12T13:21:11.606Z,32.31
2023-04-12T13:23:38.491Z,34.01
2023-04-12T13:26:06.395Z,35.45
2023-04-12T13:28:33.658Z,35.89
2023-04-12T13:31:01.873Z,36.12
2023-04-12T13:33:28.766Z,36.34
2023-04-12T13:35:55.737Z,36.70
2023-04-12T13:38:22.570Z,36.56
2023-04-12T13:40:49.453Z,36.32
2023-04-12T13:43:16.810Z,36.77
2023-04-12T13:45:44.662Z,37.05
2023-04-12T13:48:11.551Z,37.23
2023-04-12T13:50:38.880Z,36.44
2023-04-12T13:53:05.927Z,35.48
2023-04-12T13:55:32.871Z,34.53
2023-04-12T13:57:59.819Z,34.87
2023-04-12T14:00:27.417Z,35.00
2023-04-12T14:02:54.576Z,34.40
2023-04-12T14:05:21.614Z,34.72
2023-04-12T14:07:50.091Z,34.24
2023-04-12T14:10:16.953Z,34.09
2023-04-12T14:12:43.715Z,35.02
2023-04-12T14:15:10.825Z,34.77
2023-04-12T14:17:37.904Z,35.40
2023-04-12T14:20:08.787Z,36.17
2023-04-12T14:22:35.478Z,35.85
2023-04-12T14:25:02.406Z,34.95
2023-04-12T14:27:29.369Z,34.74
2023-04-12T14:29:56.850Z,35.11
2023-04-12T14:32:24.009Z,35.40
2023-04-12T14:34:50.938Z,35.96
2023-04-12T14:37:17.915Z,36.50
2023-04-12T14:39:44.838Z,37.06
2023-04-12T14:42:12.092Z,37.32
2023-04-12T14:44:39.068Z,38.21
2023-04-12T14:47:06.197Z,38.23
2023-04-12T14:49:33.524Z,37.80
2023-04-12T14:52:01.681Z,38.08
2023-04-12T14:54:28.600Z,39.38
2023-04-12T14:56:56.222Z,39.59
2023-04-12T14:59:23.636Z,39.75
2023-04-12T15:01:52.824Z,40.19
2023-04-12T15:04:20.317Z,39.85
2023-04-12T15:06:47.281Z,39.21
2023-04-12T15:09:17.981Z,39.36
2023-04-12T15:11:49.282Z,39.64
2023-04-12T15:14:20.850Z,39.91
2023-04-12T15:16:49.361Z,39.86
2023-04-12T15:19:20.895Z,42.05
2023-04-12T15:21:51.556Z,42.66
2023-04-12T15:24:19.072Z,42.55
2023-04-12T15:26:49.597Z,43.13
2023-04-12T15:29:17.220Z,43.45
2023-04-12T15:31:44.468Z,43.96
2023-04-12T15:34:14.590Z,44.99
2023-04-12T15:36:43.374Z,44.93
2023-04-12T15:39:11.400Z,45.31
2023-04-12T15:41:39.981Z,45.13
2023-04-12T15:44:08.583Z,45.16
2023-04-12T15:46:36.436Z,45.60
2023-04-12T15:49:03.264Z,46.42
2023-04-12T15:51:30.343Z,46.12
2023-04-12T15:53:57.530Z,45.72
2023-04-12T15:56:25.429Z,44.94
2023-04-12T15:58:53.931Z,45.98
2023-04-12T16:01:20.935Z,46.51
2023-04-12T16:03:48.941Z,45.76
2023-04-12T16:06:20.293Z,45.49
2023-04-12T16:08:52.049Z,45.83
2023-04-12T16:11:21.193Z,46.14
2023-04-12T16:13:49.866Z,46.98
2023-04-12T16:16:18.596Z,47.65
2023-04-12T16:18:46.658Z,48.71
2023-04-12T16:21:16.752Z,48.97
2023-04-12T16:23:44.631Z,49.57
2023-04-12T16:26:14.347Z,50.63
2023-04-12T16:28:43.267Z,51.11
2023-04-12T16:31:10.584Z,51.48
2023-04-12T16:33:37.784Z,51.99
2023-04-12T16:36:05.298Z,52.11
2023-04-12T16:38:35.048Z,52.49
2023-04-12T16:41:02.613Z,53.23
2023-04-12T16:43:29.459Z,53.73
2023-04-12T16:45:56.948Z,54.95
2023-04-12T16:48:23.758Z,55.35
2023-04-12T16:50:50.634Z,55.56
2023-04-12T16:53:17.778Z,55.78
2023-04-12T16:55:48.099Z,56.09
2023-04-12T16:58:15.973Z,56.85
2023-04-12T17:00:43.321Z,56.74
2023-04-12T17:03:12.798Z,57.07
2023-04-12T17:05:42.584Z,57.38
2023-04-12T17:08:10.007Z,57.85
2023-04-12T17:10:37.439Z,57.93
2023-04-12T17:13:05.040Z,57.99
2023-04-12T17:15:32.005Z,58.61
2023-04-12T17:18:02.065Z,58.74
2023-04-12T17:20:29.493Z,59.09
2023-04-12T17:22:58.046Z,59.35
2023-04-12T17:25:27.338Z,59.38
2023-04-12T17:27:54.177Z,59.75
2023-04-12T17:30:21.202Z,60.48
2023-04-12T17:32:48.818Z,60.01
2023-04-12T17:35:17.443Z,60.40
2023-04-12T17:37:44.594Z,60.64
2023-04-12T17:40:12.757Z,60.69
2023-04-12T17:42:41.550Z,61.13
2023-04-12T17:45:12.542Z,61.12
2023-04-12T17:47:40.697Z,61.34
2023-04-12T17:50:09.579Z,61.65
2023-04-12T17:52:37.340Z,61.55
2023-04-12T17:55:05.508Z,62.66
2023-04-12T17:57:32.972Z,61.65
2023-04-12T17:59:59.813Z,57.94
2023-04-12T18:02:27.777Z,57.94
2023-04-12T18:04:55.414Z,59.38
2023-04-12T18:07:23.173Z,60.67
2023-04-12T18:09:51.394Z,61.47
2023-04-12T18:12:18.473Z,62.00
2023-04-12T18:14:45.542Z,63.75
2023-04-12T18:17:12.481Z,61.43
2023-04-12T18:19:39.324Z,59.02
2023-04-12T18:22:06.382Z,58.39
2023-04-12T18:24:33.262Z,60.04
2023-04-12T18:27:01.674Z,61.33
2023-04-12T18:29:28.436Z,63.09
2023-04-12T18:31:55.546Z,62.38
2023-04-12T18:34:22.940Z,60.07
2023-04-12T18:36:50.000Z,57.86
2023-04-12T18:39:16.857Z,58.60
2023-04-12T18:41:43.514Z,59.55
2023-04-12T18:44:11.945Z,60.21
2023-04-12T18:46:42.037Z,60.55
2023-04-12T18:49:11.949Z,62.66
2023-04-12T18:51:38.794Z,64.36
2023-04-12T18:54:08.497Z,62.81
2023-04-12T18:56:35.578Z,61.51
2023-04-12T18:59:03.936Z,59.30
2023-04-12T19:01:30.875Z,57.67
2023-04-12T19:04:00.023Z,57.90
2023-04-12T19:06:27.270Z,58.35
2023-04-12T19:08:54.137Z,59.69
2023-04-12T19:11:21.412Z,60.67
2023-04-12T19:13:50.980Z,61.77
2023-04-12T19:16:18.235Z,64.17
2023-04-12T19:18:45.290Z,63.55
2023-04-12T19:21:12.232Z,62.06
2023-04-12T19:23:39.044Z,59.51
2023-04-12T19:26:06.642Z,58.80
2023-04-12T19:28:33.450Z,59.92
2023-04-12T19:31:03.835Z,60.82
2023-04-12T19:33:30.680Z,61.03
2023-04-12T19:35:57.746Z,64.54
2023-04-12T19:38:28.195Z,65.06
2023-04-12T19:40:56.218Z,63.67
2023-04-12T19:43:23.726Z,61.77
2023-04-12T19:45:50.956Z,60.88
2023-04-12T19:48:18.604Z,58.81
2023-04-12T19:50:49.115Z,57.88
2023-04-12T19:53:21.485Z,58.71
2023-04-12T19:55:48.090Z,59.81
2023-04-12T19:58:15.559Z,62.78
2023-04-12T20:00:42.270Z,64.73
2023-04-12T20:03:09.559Z,63.17
2023-04-12T20:05:36.786Z,60.73
2023-04-12T20:08:03.866Z,58.89
2023-04-12T20:10:30.741Z,58.83
2023-04-12T20:12:57.470Z,59.99
2023-04-12T20:15:24.706Z,61.03
2023-04-12T20:17:52.256Z,63.62
2023-04-12T20:20:19.570Z,63.85
2023-04-12T20:22:47.867Z,62.66
2023-04-12T20:25:15.300Z,61.68
2023-04-12T20:27:42.521Z,60.92
2023-04-12T20:30:11.352Z,60.52
2023-04-12T20:32:38.799Z,60.67
2023-04-12T20:35:06.759Z,60.59
2023-04-12T20:37:34.106Z,60.73
2023-04-12T20:40:01.480Z,60.91
2023-04-12T20:42:28.504Z,60.72
2023-04-12T20:44:57.628Z,60.59
2023-04-12T20:47:24.928Z,60.86
2023-04-12T20:49:52.455Z,60.96
2023-04-12T20:52:19.805Z,61.08
2023-04-12T20:54:48.368Z,60.89
2023-04-12T20:57:20.117Z,60.91
2023-04-12T20:59:47.344Z,61.16
2023-04-12T21:02:16.750Z,61.30
2023-04-12T21:04:45.495Z,61.19
2023-04-12T21:07:12.974Z,61.11
2023-04-12T21:09:40.075Z,60.63
2023-04-12T21:12:08.894Z,60.84
2023-04-12T21:14:37.990Z,60.92
2023-04-12T21:17:05.903Z,60.66
2023-04-12T21:19:39.134Z,60.46
2023-04-12T21:22:07.179Z,60.49
2023-04-12T21:24:40.690Z,60.80
2023-04-12T21:27:08.557Z,60.69
2023-04-12T21:29:41.370Z,60.79
2023-04-12T21:32:09.432Z,60.83
2023-04-12T21:34:39.303Z,60.85
2023-04-12T21:37:06.168Z,60.73
2023-04-12T21:39:33.351Z,58.92
2023-04-12T21:41:59.970Z,58.88
2023-04-12T21:44:27.000Z,59.98
2023-04-12T21:46:53.922Z,63.69
2023-04-12T21:49:20.963Z,66.26
2023-04-12T21:51:49.352Z,66.52
2023-04-12T21:54:16.571Z,66.14
2023-04-12T21:56:43.407Z,65.52
2023-04-12T21:59:10.124Z,65.00
2023-04-12T22:01:37.501Z,64.84
2023-04-12T22:04:04.611Z,64.27
2023-04-12T22:06:31.638Z,64.52
2023-04-12T22:09:02.051Z,64.07
2023-04-12T22:11:30.621Z,63.30
2023-04-12T22:13:57.966Z,63.35
2023-04-12T22:16:24.867Z,63.00
2023-04-12T22:18:53.048Z,63.09
2023-04-12T22:21:19.748Z,63.04
2023-04-12T22:23:46.839Z,62.85
2023-04-12T22:26:13.908Z,62.75
2023-04-12T22:28:42.635Z,62.70
2023-04-12T22:31:16.437Z,62.96
2023-04-12T22:33:43.868Z,63.22
2023-04-12T22:36:10.734Z,63.24
2023-04-12T22:38:38.041Z,63.10
2023-04-12T22:41:05.361Z,62.99
2023-04-12T22:43:37.915Z,62.55
2023-04-12T22:46:05.873Z,62.04
2023-04-12T22:48:32.657Z,62.14
2023-04-12T22:51:03.680Z,62.34
2023-04-12T22:53:33.315Z,62.77
2023-04-12T22:55:59.983Z,62.05
2023-04-12T22:58:27.175Z,61.52
2023-04-12T23:00:54.104Z,61.16
2023-04-12T23:03:21.601Z,60.69
2023-04-12T23:05:50.357Z,60.86
2023-04-12T23:08:20.346Z,60.69
2023-04-12T23:10:47.013Z,60.74
2023-04-12T23:13:13.702Z,60.81
2023-04-12T23:15:43.937Z,60.44
2023-04-12T23:18:10.822Z,60.30
2023-04-12T23:20:38.470Z,60.21
2023-04-12T23:23:05.659Z,60.48
2023-04-12T23:25:41.332Z,60.89
2023-04-12T23:28:13.986Z,60.47
2023-04-12T23:30:51.014Z,60.36
2023-04-12T23:33:20.238Z,60.58
2023-04-12T23:35:56.040Z,60.68
2023-04-12T23:38:24.578Z,61.47
2023-04-12T23:40:54.339Z,61.27
2023-04-12T23:43:21.550Z,60.91
2023-04-12T23:45:48.492Z,62.21
2023-04-12T23:48:16.476Z,62.17
2023-04-12T23:50:45.813Z,60.70
2023-04-12T23:53:13.299Z,61.16
2023-04-12T23:55:42.681Z,61.22
2023-04-12T23:58:09.924Z,61.06
